createdAt,value
2018-09-22T00:01:50.670Z,94931.72
2018-09-22T00:04:19.008Z,94940.48
2018-09-22T00:06:47.325Z,94935.34
2018-09-22T00:09:15.627Z,94951.20
2018-09-22T00:11:44.047Z,94948.09
2018-09-22T00:14:12.316Z,94951.44
2018-09-22T00:16:40.632Z,94950.69
2018-09-22T00:19:08.896Z,94952.14
2018-09-22T00:21:37.192Z,94962.63
2018-09-22T00:24:05.474Z,94965.98
2018-09-22T00:26:33.775Z,94970.61
2018-09-22T00:29:02.055Z,94953.97
2018-09-22T00:31:30.348Z,94961.85
2018-09-22T00:33:58.619Z,94969.13
2018-09-22T00:36:26.904Z,94973.30
2018-09-22T00:38:55.257Z,94969.64
2018-09-22T00:41:23.540Z,94977.40
2018-09-22T00:43:51.820Z,94970.69
2018-09-22T00:46:20.226Z,94966.77
2018-09-22T00:48:48.516Z,94977.15
2018-09-22T00:51:16.809Z,94982.87
2018-09-22T00:53:45.170Z,94982.38
2018-09-22T00:56:13.495Z,94988.60
2018-09-22T00:58:41.751Z,94997.19
2018-09-22T01:01:10.067Z,94996.34
2018-09-22T01:03:38.375Z,94996.41
2018-09-22T01:06:06.887Z,95005.00
2018-09-22T01:08:35.211Z,94999.22
2018-09-22T01:11:03.490Z,95006.30
2018-09-22T01:13:31.808Z,95016.38
2018-09-22T01:16:00.109Z,95014.55
2018-09-22T01:18:28.387Z,95014.91
2018-09-22T01:20:56.803Z,95014.35
2018-09-22T01:23:25.124Z,95020.58
2018-09-22T01:25:53.422Z,95046.08
2018-09-22T01:28:21.731Z,95041.13
2018-09-22T01:30:50.039Z,95039.01
2018-09-22T01:33:18.340Z,95046.55
2018-09-22T01:35:46.631Z,95046.05
2018-09-22T01:38:14.935Z,95053.08
2018-09-22T01:40:43.366Z,95056.98
2018-09-22T01:43:11.684Z,95059.83
2018-09-22T01:45:40.187Z,95069.59
2018-09-22T01:48:08.515Z,95061.14
2018-09-22T01:50:36.871Z,95093.27
2018-09-22T01:53:05.143Z,95079.28
2018-09-22T01:55:33.420Z,95086.77
2018-09-22T01:58:01.707Z,95087.91
2018-09-22T02:00:30.022Z,95109.86
2018-09-22T02:02:58.299Z,95113.94
2018-09-22T02:05:26.604Z,95114.38
2018-09-22T02:07:54.900Z,95103.67
2018-09-22T02:10:23.191Z,95104.97
2018-09-22T02:12:51.545Z,95109.38
2018-09-22T02:15:19.936Z,95128.90
2018-09-22T02:17:48.221Z,95144.03
2018-09-22T02:20:16.503Z,95130.42
2018-09-22T02:22:44.844Z,95121.98
2018-09-22T02:25:13.144Z,95120.32
2018-09-22T02:27:41.724Z,95118.56
2018-09-22T02:30:10.013Z,95123.37
2018-09-22T02:32:38.309Z,95108.75
2018-09-22T02:35:06.928Z,95102.33
2018-09-22T02:37:35.195Z,95099.66
2018-09-22T02:40:03.478Z,95098.91
2018-09-22T02:42:31.767Z,95102.24
2018-09-22T02:45:00.050Z,95103.06
2018-09-22T02:47:28.336Z,95117.00
2018-09-22T02:49:56.703Z,95110.23
2018-09-22T02:52:24.998Z,95120.16
2018-09-22T02:54:53.267Z,95117.31
2018-09-22T02:57:21.532Z,95115.98
2018-09-22T02:59:49.837Z,95120.52
2018-09-22T03:02:18.096Z,95125.48
2018-09-22T03:04:46.428Z,95134.23
2018-09-22T03:07:14.787Z,95122.19
2018-09-22T03:09:43.211Z,95121.58
2018-09-22T03:12:11.551Z,95120.14
2018-09-22T03:14:39.816Z,95118.27
2018-09-22T03:17:08.096Z,95119.52
2018-09-22T03:19:36.354Z,95125.81
2018-09-22T03:22:04.623Z,95132.20
2018-09-22T03:24:32.876Z,95142.78
2018-09-22T03:27:01.151Z,95138.87
2018-09-22T03:29:29.403Z,95132.65
2018-09-22T03:31:57.679Z,95128.75
2018-09-22T03:34:25.968Z,95130.66
2018-09-22T03:36:54.274Z,95139.59
2018-09-22T03:39:22.568Z,95145.72
2018-09-22T03:41:50.884Z,95145.72
2018-09-22T03:44:19.156Z,95132.42
2018-09-22T03:46:47.422Z,95126.52
2018-09-22T03:49:15.694Z,95130.97
2018-09-22T03:51:43.974Z,95139.58
2018-09-22T03:54:12.343Z,95146.80
2018-09-22T03:56:40.610Z,95131.89
2018-09-22T03:59:08.884Z,95139.42
2018-09-22T04:01:37.208Z,95132.78
2018-09-22T04:04:05.587Z,95143.25
2018-09-22T04:06:33.857Z,95137.52
2018-09-22T04:09:02.299Z,95143.61
2018-09-22T04:11:30.683Z,95145.09
2018-09-22T04:13:59.091Z,95133.11
2018-09-22T04:16:27.450Z,95143.83
2018-09-22T04:18:55.824Z,95148.36
2018-09-22T04:21:24.189Z,95147.63
2018-09-22T04:23:52.609Z,95133.22
2018-09-22T04:26:20.996Z,95147.39
2018-09-22T04:28:49.461Z,95147.53
2018-09-22T04:31:17.802Z,95163.20
2018-09-22T04:33:46.205Z,95144.78
2018-09-22T04:36:14.590Z,95152.86
2018-09-22T04:38:42.943Z,95158.22
2018-09-22T04:41:11.342Z,95162.72
2018-09-22T04:43:39.776Z,95156.03
2018-09-22T04:46:08.157Z,95160.25
2018-09-22T04:48:36.503Z,95168.70
2018-09-22T04:51:04.896Z,95175.58
2018-09-22T04:53:33.320Z,95182.08
2018-09-22T04:56:01.787Z,95193.60
2018-09-22T04:58:30.198Z,95188.95
2018-09-22T05:00:58.588Z,95193.82
2018-09-22T05:03:27.071Z,95200.80
2018-09-22T05:05:55.525Z,95194.28
2018-09-22T05:08:23.903Z,95196.92
2018-09-22T05:10:52.334Z,95198.75
2018-09-22T05:13:20.760Z,95210.20
2018-09-22T05:15:49.151Z,95208.88
2018-09-22T05:18:17.600Z,95218.17
2018-09-22T05:20:46.015Z,95218.39
2018-09-22T05:23:14.308Z,95229.56
2018-09-22T05:25:42.733Z,95227.39
2018-09-22T05:28:11.113Z,95233.05
2018-09-22T05:30:39.547Z,95242.65
2018-09-22T05:33:07.957Z,95236.10
2018-09-22T05:35:36.420Z,95240.10
2018-09-22T05:38:04.851Z,95239.71
2018-09-22T05:40:33.275Z,95242.08
2018-09-22T05:43:01.669Z,95244.73
2018-09-22T05:45:30.270Z,95246.21
2018-09-22T05:47:58.660Z,95258.20
2018-09-22T05:50:27.074Z,95248.16
2018-09-22T05:52:55.431Z,95254.22
2018-09-22T05:55:23.827Z,95259.53
2018-09-22T05:57:52.228Z,95269.35
2018-09-22T06:00:20.752Z,95280.62
2018-09-22T06:02:49.203Z,95278.47
2018-09-22T06:05:17.611Z,95289.42
2018-09-22T06:07:45.967Z,95276.77
2018-09-22T06:10:14.374Z,95278.28
2018-09-22T06:12:42.723Z,95285.75
2018-09-22T06:15:11.083Z,95285.37
2018-09-22T06:17:39.509Z,95281.88
2018-09-22T06:20:07.983Z,95281.88
2018-09-22T06:22:36.434Z,95282.53
2018-09-22T06:25:04.884Z,95287.75
2018-09-22T06:27:33.315Z,95284.37
2018-09-22T06:30:01.762Z,95290.37
2018-09-22T06:32:30.186Z,95302.38
2018-09-22T06:34:58.635Z,95289.45
2018-09-22T06:37:27.048Z,95293.30
2018-09-22T06:39:55.402Z,95294.80
2018-09-22T06:42:23.827Z,95290.95
2018-09-22T06:44:52.228Z,95285.34
2018-09-22T06:47:20.668Z,95296.98
2018-09-22T06:49:49.062Z,95293.71
2018-09-22T06:52:17.378Z,95299.14
2018-09-22T06:54:45.785Z,95299.91
2018-09-22T06:57:14.148Z,95311.68
2018-09-22T06:59:42.522Z,95298.81
2018-09-22T07:02:10.918Z,95291.30
2018-09-22T07:04:39.627Z,95299.05
2018-09-22T07:07:08.104Z,95304.52
2018-09-22T07:09:36.507Z,95302.61
2018-09-22T07:12:04.904Z,95302.98
2018-09-22T07:14:33.335Z,95302.29
2018-09-22T07:17:02.763Z,95307.69
2018-09-22T07:19:31.197Z,95301.45
2018-09-22T07:22:04.877Z,95306.29
2018-09-22T07:24:33.283Z,95308.24
2018-09-22T07:27:02.741Z,95309.20
2018-09-22T07:29:31.094Z,95304.84
2018-09-22T07:31:59.523Z,95302.45
2018-09-22T07:34:27.994Z,95301.78
2018-09-22T07:36:56.418Z,95303.56
2018-09-22T07:39:24.819Z,95305.98
2018-09-22T07:41:53.766Z,95307.92
2018-09-22T07:44:22.269Z,95305.57
2018-09-22T07:46:50.656Z,95321.46
2018-09-22T07:49:19.063Z,95320.15
2018-09-22T07:51:47.519Z,95320.47
2018-09-22T07:54:15.921Z,95331.89
2018-09-22T07:56:44.354Z,95340.23
2018-09-22T07:59:12.786Z,95351.45
2018-09-22T08:01:41.207Z,95349.63
2018-09-22T08:04:09.597Z,95353.77
2018-09-22T08:06:37.991Z,95348.57
2018-09-22T08:09:07.209Z,95349.55
2018-09-22T08:11:35.603Z,95343.25
2018-09-22T08:14:04.245Z,95364.51
2018-09-22T08:16:32.632Z,95366.36
2018-09-22T08:19:01.034Z,95360.05
2018-09-22T08:21:29.495Z,95358.20
2018-09-22T08:23:57.809Z,95355.73
2018-09-22T08:26:26.279Z,95343.98
2018-09-22T08:28:54.775Z,95341.88
2018-09-22T08:31:23.149Z,95353.92
2018-09-22T08:33:51.489Z,95355.57
2018-09-22T08:36:20.085Z,95340.45
2018-09-22T08:38:48.465Z,95340.85
2018-09-22T08:41:16.830Z,95342.92
2018-09-22T08:43:45.273Z,95342.72
2018-09-22T08:46:13.614Z,95350.59
2018-09-22T08:48:42.107Z,95368.02
2018-09-22T08:51:10.477Z,95355.98
2018-09-22T08:53:38.833Z,95354.53
2018-09-22T08:56:07.207Z,95342.23
2018-09-22T08:58:35.708Z,95359.48
2018-09-22T09:01:04.113Z,95361.73
2018-09-22T09:03:32.623Z,95356.98
2018-09-22T09:06:01.063Z,95353.59
2018-09-22T09:08:29.474Z,95351.66
2018-09-22T09:10:57.911Z,95356.41
2018-09-22T09:13:26.324Z,95355.87
2018-09-22T09:15:54.736Z,95360.25
2018-09-22T09:18:23.150Z,95363.23
2018-09-22T09:20:51.560Z,95363.23
2018-09-22T09:23:20.015Z,95368.26
2018-09-22T09:25:48.538Z,95371.57
2018-09-22T09:28:16.926Z,95357.76
2018-09-22T09:30:45.339Z,95363.64
2018-09-22T09:33:13.761Z,95358.69
2018-09-22T09:35:42.232Z,95373.42
2018-09-22T09:38:17.282Z,95363.14
2018-09-22T09:40:45.647Z,95343.73
2018-09-22T09:43:14.057Z,95334.67
2018-09-22T09:45:42.452Z,95330.28
2018-09-22T09:48:10.787Z,95330.89
2018-09-22T09:50:39.205Z,95337.08
2018-09-22T09:53:07.539Z,95338.67
2018-09-22T09:55:35.919Z,95337.98
2018-09-22T09:58:04.327Z,95337.28
2018-09-22T10:00:38.049Z,95334.05
2018-09-22T10:03:06.470Z,95323.31
2018-09-22T10:05:34.879Z,95323.80
2018-09-22T10:08:03.257Z,95328.05
2018-09-22T10:10:31.671Z,95320.09
2018-09-22T10:13:00.133Z,95304.53
2018-09-22T10:15:28.544Z,95317.96
2018-09-22T10:17:56.940Z,95297.94
2018-09-22T10:20:25.281Z,95289.41
2018-09-22T10:22:54.571Z,95301.96
2018-09-22T10:25:22.948Z,95300.63
2018-09-22T10:27:51.306Z,95292.30
2018-09-22T10:30:22.922Z,95295.92
2018-09-22T10:32:51.376Z,95308.55
2018-09-22T10:35:19.868Z,95308.72
2018-09-22T10:37:49.239Z,95307.23
2018-09-22T10:40:17.892Z,95297.73
2018-09-22T10:42:47.304Z,95295.02
2018-09-22T10:45:15.755Z,95295.36
2018-09-22T10:47:44.213Z,95297.58
2018-09-22T10:50:12.718Z,95308.83
2018-09-22T10:52:42.340Z,95305.60
2018-09-22T10:55:10.857Z,95310.75
2018-09-22T10:57:39.335Z,95309.82
2018-09-22T11:00:07.918Z,95314.81
2018-09-22T11:02:37.135Z,95307.57
2018-09-22T11:05:05.814Z,95307.64
2018-09-22T11:07:35.524Z,95302.85
2018-09-22T11:10:04.436Z,95315.64
2018-09-22T11:12:32.995Z,95315.22
2018-09-22T11:15:01.503Z,95314.36
2018-09-22T11:17:30.098Z,95308.88
2018-09-22T11:19:58.737Z,95310.84
2018-09-22T11:22:27.176Z,95311.20
2018-09-22T11:24:56.636Z,95301.92
2018-09-22T11:27:25.084Z,95292.88
2018-09-22T11:29:55.070Z,95299.58
2018-09-22T11:32:23.795Z,95300.77
2018-09-22T11:34:53.018Z,95305.23
2018-09-22T11:37:21.459Z,95313.70
2018-09-22T11:39:49.923Z,95311.78
2018-09-22T11:42:18.448Z,95299.65
2018-09-22T11:44:46.907Z,95293.61
2018-09-22T11:47:16.155Z,95284.13
2018-09-22T11:49:44.631Z,95272.50
2018-09-22T11:54:55.821Z,95272.00
2018-09-22T11:57:24.389Z,95268.31
2018-09-22T11:59:52.778Z,95258.48
2018-09-22T12:02:21.269Z,95270.88
2018-09-22T12:04:49.687Z,95275.63
2018-09-22T12:07:18.496Z,95283.13
2018-09-22T12:09:46.871Z,95276.55
2018-09-22T12:12:15.462Z,95252.55
2018-09-22T12:14:43.819Z,95255.55
2018-09-22T12:17:12.218Z,95257.72
2018-09-22T12:19:40.665Z,95264.27
2018-09-22T12:22:09.211Z,95255.41
2018-09-22T12:24:37.739Z,95262.77
2018-09-22T12:27:06.281Z,95263.05
2018-09-22T12:29:34.662Z,95262.75
2018-09-22T12:32:03.165Z,95255.34
2018-09-22T12:34:31.463Z,95258.17
2018-09-22T12:36:59.907Z,95247.72
2018-09-22T12:39:28.346Z,95262.08
2018-09-22T12:41:56.805Z,95267.54
2018-09-22T12:44:25.262Z,95283.75
2018-09-22T12:46:53.689Z,95266.77
2018-09-22T12:49:22.111Z,95256.30
2018-09-22T12:51:50.538Z,95259.52
2018-09-22T12:54:18.942Z,95259.18
2018-09-22T12:56:47.381Z,95257.30
2018-09-22T12:59:15.853Z,95255.78
2018-09-22T13:01:44.306Z,95257.14
2018-09-22T13:04:13.811Z,95262.84
2018-09-22T13:06:42.255Z,95261.91
2018-09-22T13:09:11.501Z,95261.27
2018-09-22T13:11:39.977Z,95254.45
2018-09-22T13:14:08.594Z,95253.59
2018-09-22T13:16:37.618Z,95243.66
2018-09-22T13:19:07.108Z,95248.61
2018-09-22T13:21:35.743Z,95261.83
2018-09-22T13:24:04.159Z,95258.59
2018-09-22T13:26:32.942Z,95258.05
2018-09-22T13:29:02.216Z,95254.27
2018-09-22T13:31:31.331Z,95257.81
2018-09-22T13:33:59.780Z,95271.16
2018-09-22T13:36:28.227Z,95276.19
2018-09-22T13:38:56.753Z,95276.41
2018-09-22T13:41:25.163Z,95274.46
2018-09-22T13:43:53.610Z,95288.56
2018-09-22T13:46:22.020Z,95281.44
2018-09-22T13:48:50.422Z,95264.88
2018-09-22T13:51:18.852Z,95266.78
2018-09-22T13:53:47.351Z,95257.41
2018-09-22T13:56:15.884Z,95242.12
2018-09-22T13:58:44.296Z,95242.37
2018-09-22T14:01:12.740Z,95240.34
2018-09-22T14:03:41.248Z,95232.34
2018-09-22T14:06:09.681Z,95242.17
2018-09-22T14:08:38.167Z,95209.95
2018-09-22T14:11:06.613Z,95208.30
2018-09-22T14:13:35.106Z,95216.39
2018-09-22T14:16:03.711Z,95231.33
2018-09-22T14:18:32.201Z,95228.48
2018-09-22T14:21:00.577Z,95239.82
2018-09-22T14:23:29.050Z,95218.88
2018-09-22T14:25:57.560Z,95234.94
2018-09-22T14:28:25.960Z,95243.81
2018-09-22T14:30:54.348Z,95254.86
2018-09-22T14:33:22.790Z,95241.10
2018-09-22T14:35:51.210Z,95240.16
2018-09-22T14:38:19.564Z,95237.52
2018-09-22T14:40:48.043Z,95222.78
2018-09-22T14:43:16.488Z,95200.45
2018-09-22T14:45:44.920Z,95180.01
2018-09-22T14:48:13.395Z,95174.93
2018-09-22T14:50:41.830Z,95172.89
2018-09-22T14:53:10.248Z,95185.73
2018-09-22T14:55:38.729Z,95194.78
2018-09-22T14:58:13.624Z,95198.45
2018-09-22T15:00:42.059Z,95196.48
2018-09-22T15:03:10.487Z,95193.58
2018-09-22T15:05:38.876Z,95206.20
2018-09-22T15:08:07.352Z,95211.09
2018-09-22T15:10:35.774Z,95210.09
2018-09-22T15:13:04.224Z,95213.23
2018-09-22T15:15:32.628Z,95211.86
2018-09-22T15:18:01.040Z,95204.73
2018-09-22T15:20:29.420Z,95213.15
2018-09-22T15:22:57.790Z,95212.81
2018-09-22T15:25:26.157Z,95209.52
2018-09-22T15:27:54.685Z,95211.17
2018-09-22T15:30:23.240Z,95207.44
2018-09-22T15:32:51.608Z,95202.72
2018-09-22T15:35:20.060Z,95201.44
2018-09-22T15:37:48.547Z,95203.00
2018-09-22T15:40:17.041Z,95196.82
2018-09-22T15:42:45.498Z,95201.42
2018-09-22T15:45:13.884Z,95206.48
2018-09-22T15:47:42.287Z,95229.42
2018-09-22T15:50:10.695Z,95231.09
2018-09-22T15:52:39.098Z,95237.83
2018-09-22T15:55:07.524Z,95237.07
2018-09-22T15:57:35.967Z,95226.44
2018-09-22T16:00:04.601Z,95233.41
2018-09-22T16:02:33.017Z,95231.90
2018-09-22T16:05:01.487Z,95230.31
2018-09-22T16:07:29.879Z,95226.61
2018-09-22T16:09:58.726Z,95221.51
2018-09-22T16:12:27.551Z,95227.85
2018-09-22T16:14:56.036Z,95216.63
2018-09-22T16:17:24.559Z,95220.59
2018-09-22T16:19:53.144Z,95216.88
2018-09-22T16:22:21.609Z,95219.05
2018-09-22T16:24:50.104Z,95211.13
2018-09-22T16:27:18.686Z,95211.25
2018-09-22T16:29:47.091Z,95217.05
2018-09-22T16:32:15.550Z,95228.34
2018-09-22T16:34:44.065Z,95226.83
2018-09-22T16:37:12.524Z,95230.22
2018-09-22T16:39:41.017Z,95218.86
2018-09-22T16:42:09.505Z,95217.83
2018-09-22T16:44:37.932Z,95207.37
2018-09-22T16:47:06.464Z,95224.86
2018-09-22T16:49:35.001Z,95229.47
2018-09-22T16:52:03.367Z,95221.95
2018-09-22T16:54:31.790Z,95215.92
2018-09-22T16:57:00.301Z,95202.22
2018-09-22T16:59:28.764Z,95202.31
2018-09-22T17:01:57.216Z,95197.45
2018-09-22T17:04:25.745Z,95200.86
2018-09-22T17:06:54.154Z,95213.66
2018-09-22T17:09:22.573Z,95218.43
2018-09-22T17:11:51.122Z,95220.17
2018-09-22T17:14:19.534Z,95204.97
2018-09-22T17:16:47.973Z,95183.28
2018-09-22T17:19:16.386Z,95185.92
2018-09-22T17:21:44.803Z,95196.35
2018-09-22T17:24:13.243Z,95190.94
2018-09-22T17:26:41.829Z,95182.81
2018-09-22T17:29:10.312Z,95181.62
2018-09-22T17:31:38.815Z,95172.53
2018-09-22T17:34:07.210Z,95178.55
2018-09-22T17:36:35.752Z,95175.02
2018-09-22T17:39:05.449Z,95185.86
2018-09-22T17:41:33.923Z,95178.95
2018-09-22T17:44:02.377Z,95180.27
2018-09-22T17:46:30.855Z,95176.50
2018-09-22T17:48:59.324Z,95169.31
2018-09-22T17:51:27.758Z,95172.84
2018-09-22T17:53:56.363Z,95169.07
2018-09-22T17:56:24.804Z,95171.67
2018-09-22T17:58:53.259Z,95172.70
2018-09-22T18:01:23.127Z,95173.37
2018-09-22T18:03:51.595Z,95173.18
2018-09-22T18:06:20.062Z,95181.39
2018-09-22T18:08:48.663Z,95173.25
2018-09-22T18:11:17.104Z,95175.87
2018-09-22T18:13:45.705Z,95172.38
2018-09-22T18:16:14.687Z,95176.63
2018-09-22T18:18:43.170Z,95200.17
2018-09-22T18:21:11.643Z,95193.41
2018-09-22T18:23:40.306Z,95195.21
2018-09-22T18:26:08.751Z,95192.07
2018-09-22T18:28:37.187Z,95191.80
2018-09-22T18:31:05.610Z,95196.85
2018-09-22T18:33:34.193Z,95186.70
2018-09-22T18:36:02.684Z,95183.53
2018-09-22T18:38:31.004Z,95177.77
2018-09-22T18:40:59.384Z,95190.26
2018-09-22T18:43:27.830Z,95188.14
2018-09-22T18:45:56.285Z,95186.47
2018-09-22T18:48:24.669Z,95186.34
2018-09-22T18:50:53.086Z,95176.22
2018-09-22T18:53:21.975Z,95185.16
2018-09-22T18:55:50.534Z,95194.00
2018-09-22T18:58:19.219Z,95195.14
2018-09-22T19:00:47.830Z,95193.89
2018-09-22T19:03:16.422Z,95208.88
2018-09-22T19:05:45.015Z,95208.15
2018-09-22T19:08:13.595Z,95211.88
2018-09-22T19:10:42.236Z,95205.13
2018-09-22T19:13:12.459Z,95205.69
2018-09-22T19:15:46.088Z,95194.91
2018-09-22T19:18:19.613Z,95214.23
2018-09-22T19:20:57.214Z,95210.12
2018-09-22T19:23:29.057Z,95212.08
2018-09-22T19:26:02.305Z,95210.72
2018-09-22T19:29:36.682Z,95224.06
2018-09-22T19:32:08.180Z,95200.88
2018-09-22T19:34:39.986Z,95207.65
2018-09-22T19:37:13.613Z,95218.43
2018-09-22T19:39:46.473Z,95201.58
2018-09-22T19:42:18.986Z,95202.86
2018-09-22T19:44:52.654Z,95204.86
2018-09-22T19:47:26.275Z,95211.40
2018-09-22T19:50:01.995Z,95213.52
2018-09-22T19:52:34.902Z,95221.88
2018-09-22T19:55:03.335Z,95221.75
2018-09-22T19:57:32.249Z,95209.90
2018-09-22T20:00:00.727Z,95217.23
2018-09-22T20:02:29.213Z,95208.73
2018-09-22T20:04:57.684Z,95203.86
2018-09-22T20:07:26.191Z,95204.16
2018-09-22T20:09:54.586Z,95195.95
2018-09-22T20:12:23.302Z,95200.97
2018-09-22T20:14:51.790Z,95196.25
2018-09-22T20:17:20.309Z,95193.64
2018-09-22T20:19:48.708Z,95195.71
2018-09-22T20:22:17.129Z,95190.45
2018-09-22T20:24:45.756Z,95189.59
2018-09-22T20:27:14.183Z,95200.26
2018-09-22T20:29:43.129Z,95191.57
2018-09-22T20:32:11.505Z,95205.05
2018-09-22T20:34:39.939Z,95202.40
2018-09-22T20:37:08.377Z,95203.11
2018-09-22T20:39:37.185Z,95190.31
2018-09-22T20:42:05.960Z,95197.97
2018-09-22T20:44:34.384Z,95187.30
2018-09-22T20:47:02.871Z,95190.20
2018-09-22T20:49:31.256Z,95178.14
2018-09-22T20:51:59.762Z,95177.20
2018-09-22T20:54:28.168Z,95178.33
2018-09-22T20:56:56.595Z,95170.38
2018-09-22T20:59:25.142Z,95171.74
2018-09-22T21:01:53.511Z,95180.83
2018-09-22T21:04:21.886Z,95174.81
2018-09-22T21:06:50.208Z,95189.78
2018-09-22T21:09:18.663Z,95191.98
2018-09-22T21:11:47.144Z,95187.28
2018-09-22T21:14:15.504Z,95189.89
2018-09-22T21:16:43.914Z,95192.53
2018-09-22T21:19:12.555Z,95187.70
2018-09-22T21:21:40.934Z,95178.05
2018-09-22T21:24:09.338Z,95174.92
2018-09-22T21:26:37.811Z,95171.86
2018-09-22T21:29:06.196Z,95180.27
2018-09-22T21:31:34.788Z,95160.90
2018-09-22T21:34:03.458Z,95158.88
2018-09-22T21:36:32.702Z,95163.74
2018-09-22T21:39:01.064Z,95156.21
2018-09-22T21:41:29.515Z,95141.73
2018-09-22T21:43:58.039Z,95131.02
2018-09-22T21:46:26.772Z,95124.55
2018-09-22T21:48:55.230Z,95118.84
2018-09-22T21:51:24.209Z,95122.67
2018-09-22T21:53:52.837Z,95117.17
2018-09-22T21:56:21.114Z,95118.58
2018-09-22T21:58:49.594Z,95124.80
2018-09-22T22:01:23.188Z,95127.66
2018-09-22T22:03:51.751Z,95132.30
2018-09-22T22:06:20.282Z,95134.84
2018-09-22T22:08:48.868Z,95145.87
2018-09-22T22:11:17.280Z,95146.70
2018-09-22T22:13:45.687Z,95145.40
2018-09-22T22:16:14.000Z,95147.52
2018-09-22T22:18:42.279Z,95137.91
2018-09-22T22:21:10.569Z,95129.47
2018-09-22T22:23:38.883Z,95119.66
2018-09-22T22:26:07.422Z,95121.48
2018-09-22T22:28:35.879Z,95131.12
2018-09-22T22:31:04.140Z,95124.05
2018-09-22T22:33:32.524Z,95124.37
2018-09-22T22:36:00.866Z,95110.83
2018-09-22T22:38:29.268Z,95114.75
2018-09-22T22:40:57.553Z,95100.42
2018-09-22T22:43:25.916Z,95084.55
2018-09-22T22:45:54.408Z,95107.70
2018-09-22T22:48:22.720Z,95107.70
2018-09-22T22:50:51.035Z,95111.62
2018-09-22T22:53:19.294Z,95102.27
2018-09-22T22:55:47.745Z,95103.48
2018-09-22T22:58:16.148Z,95104.84
2018-09-22T23:00:44.569Z,95103.53
2018-09-22T23:03:12.988Z,95109.23
2018-09-22T23:05:41.393Z,95107.45
2018-09-22T23:08:09.719Z,95106.93
2018-09-22T23:10:38.134Z,95105.89
2018-09-22T23:13:06.637Z,95102.70
2018-09-22T23:15:35.138Z,95091.59
2018-09-22T23:18:03.679Z,95091.97
2018-09-22T23:20:32.023Z,95090.97
2018-09-22T23:23:00.287Z,95082.42
2018-09-22T23:25:28.578Z,95079.31
2018-09-22T23:27:57.017Z,95082.23
2018-09-22T23:30:25.451Z,95072.33
2018-09-22T23:32:53.848Z,95087.16
2018-09-22T23:35:22.107Z,95080.14
2018-09-22T23:37:50.374Z,95077.22
2018-09-22T23:40:18.714Z,95080.39
2018-09-22T23:42:47.061Z,95068.16
2018-09-22T23:45:15.382Z,95061.91
2018-09-22T23:47:43.705Z,95050.77
2018-09-22T23:50:11.990Z,95041.91
2018-09-22T23:52:40.275Z,95043.47
2018-09-22T23:55:08.555Z,95058.02
2018-09-22T23:57:36.871Z,95050.50
